createdAt,value
2018-08-06T00:00:24.992Z,20.30
2018-08-06T00:02:53.467Z,20.30
2018-08-06T00:05:22.093Z,20.20
2018-08-06T00:07:50.613Z,20.10
2018-08-06T00:10:20.886Z,20.10
2018-08-06T00:12:49.383Z,20.00
2018-08-06T00:15:17.913Z,20.00
2018-08-06T00:17:46.490Z,20.00
2018-08-06T00:20:15.606Z,20.00
2018-08-06T00:22:44.615Z,20.00
2018-08-06T00:25:15.291Z,20.00
2018-08-06T00:27:44.133Z,20.10
2018-08-06T00:30:15.185Z,20.10
2018-08-06T00:32:44.469Z,20.20
2018-08-06T00:35:13.362Z,20.20
2018-08-06T00:37:41.946Z,20.10
2018-08-06T00:40:16.850Z,20.10
2018-08-06T00:42:45.872Z,20.10
2018-08-06T00:45:17.382Z,20.00
2018-08-06T00:47:46.312Z,20.00
2018-08-06T00:50:14.874Z,19.90
2018-08-06T00:52:43.582Z,19.90
2018-08-06T00:55:16.735Z,19.90
2018-08-06T00:57:45.191Z,19.90
2018-08-06T01:00:18.489Z,19.90
2018-08-06T01:02:46.950Z,20.00
2018-08-06T01:05:16.245Z,19.90
2018-08-06T01:07:46.762Z,19.80
2018-08-06T01:10:17.783Z,19.80
2018-08-06T01:12:47.413Z,19.60
2018-08-06T01:17:45.674Z,19.50
2018-08-06T01:20:14.954Z,19.40
2018-08-06T01:22:44.398Z,19.40
2018-08-06T01:25:13.717Z,19.40
2018-08-06T01:27:42.387Z,19.30
2018-08-06T01:30:12.549Z,19.30
2018-08-06T01:32:41.025Z,19.30
2018-08-06T01:35:10.621Z,19.20
2018-08-06T01:37:39.161Z,19.20
2018-08-06T01:40:11.370Z,19.10
2018-08-06T01:42:40.037Z,19.10
2018-08-06T01:45:09.072Z,19.00
2018-08-06T01:47:38.014Z,19.10
2018-08-06T01:50:07.550Z,19.00
2018-08-06T01:52:36.426Z,19.00
2018-08-06T01:55:05.627Z,19.00
2018-08-06T01:57:34.145Z,19.00
2018-08-06T02:00:03.058Z,18.90
2018-08-06T02:02:31.509Z,18.90
2018-08-06T02:04:59.970Z,18.90
2018-08-06T02:07:28.517Z,18.90
2018-08-06T02:09:57.129Z,18.90
2018-08-06T02:12:25.706Z,18.90
2018-08-06T02:14:54.406Z,18.90
2018-08-06T02:17:22.889Z,18.90
2018-08-06T02:19:51.950Z,18.90
2018-08-06T02:22:20.841Z,18.80
2018-08-06T02:24:49.380Z,18.80
2018-08-06T02:27:17.918Z,18.70
2018-08-06T02:29:46.402Z,18.60
2018-08-06T02:32:14.898Z,18.60
2018-08-06T02:34:43.612Z,18.50
2018-08-06T02:37:12.094Z,18.40
2018-08-06T02:39:40.617Z,18.40
2018-08-06T02:42:09.177Z,18.40
2018-08-06T02:44:37.662Z,18.40
2018-08-06T02:47:06.490Z,18.40
2018-08-06T02:49:35.025Z,18.40
2018-08-06T02:52:03.528Z,18.50
2018-08-06T02:54:32.035Z,18.50
2018-08-06T02:57:00.609Z,18.50
2018-08-06T02:59:29.113Z,18.50
2018-08-06T03:01:57.560Z,18.50
2018-08-06T03:04:26.231Z,18.50
2018-08-06T03:06:54.676Z,18.50
2018-08-06T03:09:23.402Z,18.50
2018-08-06T03:11:51.890Z,18.40
2018-08-06T03:14:20.391Z,18.40
2018-08-06T03:16:48.882Z,18.30
2018-08-06T03:21:45.590Z,18.10
2018-08-06T03:24:14.090Z,18.10
2018-08-06T03:26:42.530Z,18.00
2018-08-06T03:29:11.068Z,18.00
2018-08-06T03:31:39.585Z,18.10
2018-08-06T03:34:08.079Z,18.10
2018-08-06T03:36:36.618Z,18.10
2018-08-06T03:39:08.370Z,18.10
2018-08-06T03:41:37.166Z,18.10
2018-08-06T03:44:06.301Z,18.00
2018-08-06T03:46:35.177Z,18.00
2018-08-06T03:49:03.692Z,18.00
2018-08-06T03:51:32.546Z,18.00
2018-08-06T03:54:01.050Z,18.00
2018-08-06T03:56:29.570Z,18.10
2018-08-06T03:58:58.022Z,18.20
2018-08-06T04:01:26.677Z,18.30
2018-08-06T04:03:55.181Z,18.40
2018-08-06T04:06:23.701Z,18.50
2018-08-06T04:08:52.169Z,18.60
2018-08-06T04:11:20.956Z,18.70
2018-08-06T04:13:49.457Z,18.80
2018-08-06T04:16:17.954Z,19.00
2018-08-06T04:18:46.434Z,19.10
2018-08-06T04:21:14.917Z,19.20
2018-08-06T04:23:43.370Z,19.30
2018-08-06T04:26:11.885Z,19.40
2018-08-06T04:28:40.360Z,19.50
2018-08-06T04:31:08.967Z,19.60
2018-08-06T04:33:37.445Z,19.70
2018-08-06T04:36:06.210Z,19.80
2018-08-06T04:38:34.727Z,19.90
2018-08-06T04:41:03.213Z,20.10
2018-08-06T04:43:31.662Z,20.20
2018-08-06T04:46:00.222Z,20.30
2018-08-06T04:48:28.683Z,20.40
2018-08-06T04:50:57.183Z,20.60
2018-08-06T04:53:25.662Z,20.60
2018-08-06T04:55:54.186Z,20.70
2018-08-06T04:58:23.439Z,20.90
2018-08-06T05:00:51.947Z,20.90
2018-08-06T05:03:20.381Z,21.00
2018-08-06T05:05:48.953Z,21.10
2018-08-06T05:08:17.394Z,21.10
2018-08-06T05:10:46.109Z,21.20
2018-08-06T05:13:14.855Z,21.30
2018-08-06T05:15:43.330Z,21.40
2018-08-06T05:18:11.788Z,21.40
2018-08-06T05:20:40.453Z,21.40
2018-08-06T05:23:09.174Z,21.50
2018-08-06T05:25:37.717Z,21.60
2018-08-06T05:28:06.570Z,21.70
2018-08-06T05:30:35.087Z,21.70
2018-08-06T05:33:03.630Z,21.80
2018-08-06T05:35:32.195Z,21.90
2018-08-06T05:38:00.670Z,21.90
2018-08-06T05:40:29.327Z,22.00
2018-08-06T05:42:57.797Z,22.10
2018-08-06T05:45:26.354Z,22.10
2018-08-06T05:50:23.021Z,22.20
2018-08-06T05:52:51.550Z,22.30
2018-08-06T05:55:20.065Z,22.40
2018-08-06T05:57:48.558Z,22.40
2018-08-06T06:00:18.674Z,22.50
2018-08-06T06:02:47.561Z,22.60
2018-08-06T06:05:16.096Z,22.60
2018-08-06T06:07:44.630Z,22.70
2018-08-06T06:10:14.645Z,22.70
2018-08-06T06:12:43.229Z,22.80
2018-08-06T06:15:15.082Z,22.80
2018-08-06T06:17:44.426Z,23.00
2018-08-06T06:20:13.476Z,23.00
2018-08-06T06:22:42.004Z,23.10
2018-08-06T06:25:12.422Z,23.10
2018-08-06T06:27:41.624Z,23.20
2018-08-06T06:30:12.754Z,23.20
2018-08-06T06:32:42.204Z,23.30
2018-08-06T06:35:11.326Z,23.40
2018-08-06T06:37:39.891Z,23.50
2018-08-06T06:40:08.435Z,23.50
2018-08-06T06:42:36.960Z,23.60
2018-08-06T06:45:06.802Z,23.70
2018-08-06T06:47:35.510Z,23.70
2018-08-06T06:50:04.886Z,23.80
2018-08-06T06:52:33.430Z,23.90
2018-08-06T06:55:01.990Z,23.90
2018-08-06T06:57:30.545Z,24.00
2018-08-06T06:59:59.176Z,24.00
2018-08-06T07:02:27.705Z,24.10
2018-08-06T07:04:56.229Z,24.10
2018-08-06T07:07:24.734Z,24.20
2018-08-06T07:09:53.533Z,24.20
2018-08-06T07:12:22.021Z,24.30
2018-08-06T07:14:50.696Z,24.30
2018-08-06T07:17:19.340Z,24.40
2018-08-06T07:19:48.100Z,24.40
2018-08-06T07:24:47.681Z,24.50
2018-08-06T07:27:16.193Z,24.60
2018-08-06T07:29:44.769Z,24.70
2018-08-06T07:32:13.306Z,24.70
2018-08-06T07:34:41.807Z,24.80
2018-08-06T07:37:10.744Z,24.90
2018-08-06T07:39:39.331Z,24.90
2018-08-06T07:42:07.910Z,25.00
2018-08-06T07:47:04.692Z,25.10
2018-08-06T07:49:33.381Z,25.10
2018-08-06T07:52:01.823Z,25.20
2018-08-06T07:54:30.370Z,25.30
2018-08-06T07:56:58.874Z,25.30
2018-08-06T07:59:27.496Z,25.40
2018-08-06T08:01:56.037Z,25.50
2018-08-06T08:04:25.602Z,25.50
2018-08-06T08:06:54.638Z,25.60
2018-08-06T08:09:23.324Z,25.70
2018-08-06T08:11:51.963Z,25.80
2018-08-06T08:14:20.463Z,25.90
2018-08-06T08:16:48.981Z,26.00
2018-08-06T08:19:17.484Z,26.00
2018-08-06T08:21:45.987Z,26.10
2018-08-06T08:24:14.535Z,26.20
2018-08-06T08:26:43.198Z,26.20
2018-08-06T08:29:11.765Z,26.30
2018-08-06T08:31:40.227Z,26.40
2018-08-06T08:34:08.831Z,26.40
2018-08-06T08:36:37.453Z,26.40
2018-08-06T08:39:09.884Z,26.50
2018-08-06T08:41:38.356Z,26.60
2018-08-06T08:44:06.910Z,26.60
2018-08-06T08:46:35.453Z,26.60
2018-08-06T08:49:04.795Z,26.60
2018-08-06T08:51:33.462Z,26.80
2018-08-06T08:54:02.037Z,26.80
2018-08-06T08:56:30.515Z,26.90
2018-08-06T08:58:59.122Z,26.90
2018-08-06T09:01:28.203Z,27.00
2018-08-06T09:03:56.750Z,27.00
2018-08-06T09:06:25.388Z,27.10
2018-08-06T09:08:53.953Z,27.10
2018-08-06T09:11:22.744Z,27.20
2018-08-06T09:13:51.305Z,27.20
2018-08-06T09:16:19.844Z,27.30
2018-08-06T09:18:48.353Z,27.40
2018-08-06T09:21:16.957Z,27.50
2018-08-06T09:23:45.465Z,27.60
2018-08-06T09:26:14.090Z,27.60
2018-08-06T09:28:42.631Z,27.70
2018-08-06T09:31:11.143Z,27.70
2018-08-06T09:33:39.689Z,27.80
2018-08-06T09:36:08.198Z,27.70
2018-08-06T09:38:36.743Z,27.80
2018-08-06T09:41:05.349Z,27.70
2018-08-06T09:43:33.878Z,27.70
2018-08-06T09:46:02.355Z,27.70
2018-08-06T09:48:30.875Z,27.70
2018-08-06T09:51:00.378Z,27.70
2018-08-06T09:53:29.625Z,27.70
2018-08-06T09:55:58.156Z,27.70
2018-08-06T09:58:26.639Z,27.70
2018-08-06T10:01:02.620Z,27.80
2018-08-06T10:05:59.843Z,27.80
2018-08-06T10:08:28.223Z,27.90
2018-08-06T10:10:56.731Z,27.80
2018-08-06T10:13:25.227Z,27.80
2018-08-06T10:15:53.818Z,27.80
2018-08-06T10:18:22.922Z,27.80
2018-08-06T10:20:51.654Z,27.70
2018-08-06T10:23:20.156Z,27.70
2018-08-06T10:25:48.667Z,27.70
2018-08-06T10:28:17.127Z,27.70
2018-08-06T10:30:45.716Z,27.70
2018-08-06T10:33:14.659Z,27.70
2018-08-06T10:35:43.173Z,27.70
2018-08-06T10:38:11.649Z,27.70
2018-08-06T10:40:40.190Z,27.70
2018-08-06T10:43:08.678Z,27.70
2018-08-06T10:45:37.198Z,27.60
2018-08-06T10:48:05.982Z,27.60
2018-08-06T10:50:34.542Z,27.70
2018-08-06T10:53:04.027Z,27.60
2018-08-06T10:55:32.799Z,27.60
2018-08-06T10:58:01.357Z,27.60
2018-08-06T11:00:29.920Z,27.60
2018-08-06T11:02:58.427Z,27.60
2018-08-06T11:05:27.154Z,27.60
2018-08-06T11:07:55.685Z,27.60
2018-08-06T11:10:24.838Z,27.60
2018-08-06T11:12:53.339Z,27.60
2018-08-06T11:15:24.158Z,27.50
2018-08-06T11:17:52.729Z,27.50
2018-08-06T11:20:21.836Z,27.50
2018-08-06T11:22:50.316Z,27.50
2018-08-06T11:25:20.796Z,27.50
2018-08-06T11:27:49.571Z,27.50
2018-08-06T11:30:20.886Z,27.40
2018-08-06T11:32:50.175Z,27.40
2018-08-06T11:35:18.808Z,27.40
2018-08-06T11:37:47.443Z,27.30
2018-08-06T11:40:17.057Z,27.30
2018-08-06T11:42:46.133Z,27.30
2018-08-06T11:45:17.381Z,27.20
2018-08-06T11:47:45.914Z,27.20
2018-08-06T11:50:14.532Z,27.10
2018-08-06T11:52:43.119Z,27.00
2018-08-06T11:55:12.207Z,27.00
2018-08-06T12:00:11.806Z,26.80
2018-08-06T12:02:40.368Z,26.80
2018-08-06T12:05:09.013Z,26.80
2018-08-06T12:07:38.010Z,26.70
2018-08-06T12:10:09.488Z,26.70
2018-08-06T12:12:38.027Z,26.60
2018-08-06T12:15:07.790Z,26.60
2018-08-06T12:17:36.524Z,26.60
2018-08-06T12:20:07.880Z,26.60
2018-08-06T12:22:36.377Z,26.50
2018-08-06T12:25:06.575Z,26.40
2018-08-06T12:27:35.131Z,26.40
2018-08-06T12:30:03.712Z,26.40
2018-08-06T12:32:32.238Z,26.40
2018-08-06T12:35:00.688Z,26.30
2018-08-06T12:37:29.230Z,26.30
2018-08-06T12:39:57.864Z,26.30
2018-08-06T12:42:26.386Z,26.30
2018-08-06T12:44:54.881Z,26.30
2018-08-06T12:47:23.378Z,26.30
2018-08-06T12:49:51.851Z,26.30
2018-08-06T12:52:20.358Z,26.20
2018-08-06T12:54:48.803Z,26.30
2018-08-06T12:57:17.362Z,26.30
2018-08-06T12:59:45.822Z,26.40
2018-08-06T13:02:14.316Z,26.60
2018-08-06T13:04:42.815Z,26.90
2018-08-06T13:07:11.392Z,27.30
2018-08-06T13:09:40.342Z,27.80
2018-08-06T13:12:08.861Z,28.30
2018-08-06T13:14:37.944Z,28.90
2018-08-06T13:17:06.575Z,29.70
2018-08-06T13:19:35.296Z,31.00
2018-08-06T13:22:03.905Z,32.00
2018-08-06T13:24:32.394Z,32.80
2018-08-06T13:27:00.999Z,33.50
2018-08-06T13:29:29.583Z,34.20
2018-08-06T13:31:58.197Z,34.90
2018-08-06T13:34:27.865Z,35.60
2018-08-06T13:36:56.485Z,36.20
2018-08-06T13:39:25.134Z,36.90
2018-08-06T13:41:53.700Z,37.50
2018-08-06T13:44:22.241Z,38.00
2018-08-06T13:46:50.947Z,38.50
2018-08-06T13:49:19.410Z,39.00
2018-08-06T13:51:48.230Z,39.40
2018-08-06T13:56:45.297Z,40.40
2018-08-06T13:59:16.286Z,40.80
2018-08-06T14:01:46.330Z,41.30
2018-08-06T14:04:14.898Z,41.80
2018-08-06T14:06:43.436Z,42.30
2018-08-06T14:09:13.057Z,42.70
2018-08-06T14:11:42.025Z,43.00
2018-08-06T14:14:10.946Z,43.30
2018-08-06T14:16:39.813Z,43.10
2018-08-06T14:19:08.431Z,43.20
2018-08-06T14:21:37.160Z,43.30
2018-08-06T14:24:05.710Z,43.90
2018-08-06T14:26:34.169Z,44.30
2018-08-06T14:29:02.761Z,44.70
2018-08-06T14:31:31.316Z,45.00
2018-08-06T14:33:59.792Z,43.00
2018-08-06T14:36:28.259Z,41.30
2018-08-06T14:38:57.134Z,39.90
2018-08-06T14:41:26.253Z,38.60
2018-08-06T14:46:22.958Z,36.30
2018-08-06T14:48:52.164Z,35.40
2018-08-06T14:51:21.733Z,34.60
2018-08-06T14:53:50.507Z,33.90
2018-08-06T14:56:19.055Z,33.40
2018-08-06T14:58:53.936Z,32.90
2018-08-06T15:01:22.433Z,32.30
2018-08-06T15:03:51.224Z,32.00
2018-08-06T15:06:20.477Z,31.70
2018-08-06T15:08:49.128Z,31.60
2018-08-06T15:11:17.818Z,31.60
2018-08-06T15:13:46.413Z,31.50
2018-08-06T15:16:14.934Z,31.40
2018-08-06T15:18:44.505Z,31.20
2018-08-06T15:21:13.129Z,33.30
2018-08-06T15:23:41.677Z,35.00
2018-08-06T15:26:10.226Z,35.50
2018-08-06T15:28:38.722Z,37.50
2018-08-06T15:31:07.688Z,39.40
2018-08-06T15:33:36.239Z,40.80
2018-08-06T15:38:33.135Z,43.30
2018-08-06T15:41:01.704Z,44.10
2018-08-06T15:43:30.780Z,44.90
2018-08-06T15:45:59.368Z,45.70
2018-08-06T15:48:27.896Z,46.40
2018-08-06T15:50:56.511Z,47.10
2018-08-06T15:53:25.038Z,47.50
2018-08-06T15:55:53.565Z,48.00
2018-08-06T15:58:22.085Z,48.40
2018-08-06T16:00:50.585Z,48.80
2018-08-06T16:03:19.275Z,49.10
2018-08-06T16:05:47.750Z,49.40
2018-08-06T16:08:16.277Z,49.60
2018-08-06T16:10:45.214Z,49.60
2018-08-06T16:13:13.739Z,49.60
2018-08-06T16:15:42.218Z,49.90
2018-08-06T16:18:10.791Z,49.90
2018-08-06T16:20:39.915Z,49.90
2018-08-06T16:23:08.497Z,50.00
2018-08-06T16:25:36.953Z,47.60
2018-08-06T16:28:05.534Z,44.60
2018-08-06T16:30:34.046Z,42.30
2018-08-06T16:33:02.636Z,40.40
2018-08-06T16:35:31.137Z,38.90
2018-08-06T16:37:59.770Z,37.60
2018-08-06T16:40:28.220Z,36.60
2018-08-06T16:42:56.726Z,35.70
2018-08-06T16:45:25.218Z,35.00
2018-08-06T16:47:53.830Z,34.20
2018-08-06T16:50:22.517Z,33.70
2018-08-06T16:52:51.365Z,33.20
2018-08-06T16:55:19.941Z,32.80
2018-08-06T16:57:48.462Z,32.40
2018-08-06T17:00:20.733Z,32.10
2018-08-06T17:02:50.265Z,31.80
2018-08-06T17:05:18.896Z,31.50
2018-08-06T17:07:48.321Z,31.30
2018-08-06T17:10:18.284Z,31.10
2018-08-06T17:12:49.170Z,30.90
2018-08-06T17:15:19.137Z,30.70
2018-08-06T17:17:48.519Z,30.60
2018-08-06T17:20:18.991Z,30.40
2018-08-06T17:22:48.870Z,30.30
2018-08-06T17:25:18.093Z,30.20
2018-08-06T17:27:46.584Z,30.10
2018-08-06T17:30:16.040Z,30.00
2018-08-06T17:32:44.789Z,29.90
2018-08-06T17:35:15.999Z,29.80
2018-08-06T17:37:44.555Z,29.70
2018-08-06T17:40:15.251Z,29.60
2018-08-06T17:42:44.114Z,29.50
2018-08-06T17:45:15.458Z,29.50
2018-08-06T17:47:44.022Z,29.40
2018-08-06T17:50:14.915Z,29.30
2018-08-06T17:52:44.815Z,29.30
2018-08-06T17:55:14.218Z,29.20
2018-08-06T17:57:43.142Z,29.10
2018-08-06T18:00:12.489Z,29.00
2018-08-06T18:02:41.064Z,29.00
2018-08-06T18:05:11.729Z,28.90
2018-08-06T18:07:40.712Z,28.90
2018-08-06T18:10:11.503Z,28.80
2018-08-06T18:12:41.762Z,28.70
2018-08-06T18:15:10.356Z,28.70
2018-08-06T18:17:38.931Z,28.60
2018-08-06T18:20:10.145Z,28.50
2018-08-06T18:22:40.130Z,28.50
2018-08-06T18:25:13.756Z,28.40
2018-08-06T18:27:42.869Z,28.30
2018-08-06T18:30:14.189Z,28.30
2018-08-06T18:32:43.823Z,28.30
2018-08-06T18:37:44.598Z,28.10
2018-08-06T18:40:14.098Z,28.00
2018-08-06T18:42:43.485Z,28.00
2018-08-06T18:45:14.845Z,27.90
2018-08-06T18:47:44.375Z,27.80
2018-08-06T18:50:14.048Z,27.70
2018-08-06T18:52:43.569Z,27.60
2018-08-06T18:55:13.256Z,27.50
2018-08-06T18:57:42.402Z,27.40
2018-08-06T19:00:13.167Z,27.30
2018-08-06T19:02:41.734Z,27.20
2018-08-06T19:05:11.125Z,27.20
2018-08-06T19:07:40.117Z,27.00
2018-08-06T19:10:09.595Z,27.00
2018-08-06T19:12:43.446Z,26.90
2018-08-06T19:15:12.626Z,26.80
2018-08-06T19:17:46.535Z,26.70
2018-08-06T19:20:15.442Z,26.60
2018-08-06T19:22:44.836Z,26.60
2018-08-06T19:25:18.855Z,26.50
2018-08-06T19:27:48.007Z,26.40
2018-08-06T19:30:16.569Z,26.30
2018-08-06T19:32:45.181Z,26.30
2018-08-06T19:35:14.037Z,26.20
2018-08-06T19:37:45.438Z,26.00
2018-08-06T19:40:15.659Z,26.00
2018-08-06T19:42:49.431Z,26.00
2018-08-06T19:45:17.974Z,25.90
2018-08-06T19:47:46.591Z,25.90
2018-08-06T19:50:20.480Z,25.80
2018-08-06T19:52:49.082Z,25.80
2018-08-06T19:55:22.961Z,25.70
2018-08-06T19:57:51.533Z,25.70
2018-08-06T20:00:20.167Z,25.60
2018-08-06T20:02:48.721Z,25.60
2018-08-06T20:05:17.204Z,25.50
2018-08-06T20:07:45.844Z,25.40
2018-08-06T20:10:15.370Z,25.30
2018-08-06T20:12:45.430Z,25.30
2018-08-06T20:15:18.246Z,25.30
2018-08-06T20:17:47.733Z,25.20
2018-08-06T20:20:16.292Z,25.20
2018-08-06T20:22:45.755Z,25.10
2018-08-06T20:25:17.521Z,25.10
2018-08-06T20:27:47.026Z,25.00
2018-08-06T20:30:17.142Z,25.00
2018-08-06T20:32:45.870Z,24.90
2018-08-06T20:35:16.112Z,24.90
2018-08-06T20:37:44.719Z,24.80
2018-08-06T20:40:13.679Z,24.80
2018-08-06T20:42:44.332Z,24.70
2018-08-06T20:45:14.513Z,24.60
2018-08-06T20:47:43.769Z,24.60
2018-08-06T20:50:14.590Z,24.60
2018-08-06T20:52:43.406Z,24.60
2018-08-06T20:55:12.574Z,24.50
2018-08-06T20:57:41.578Z,24.50
2018-08-06T21:00:18.987Z,24.50
2018-08-06T21:02:48.813Z,24.50
2018-08-06T21:05:17.715Z,24.40
2018-08-06T21:07:46.255Z,24.30
2018-08-06T21:10:16.234Z,24.30
2018-08-06T21:12:45.330Z,24.30
2018-08-06T21:15:15.188Z,24.30
2018-08-06T21:17:44.036Z,24.30
2018-08-06T21:20:17.109Z,24.20
2018-08-06T21:22:47.129Z,24.20
2018-08-06T21:25:16.255Z,24.20
2018-08-06T21:27:45.921Z,24.10
2018-08-06T21:30:16.555Z,24.00
2018-08-06T21:32:48.778Z,24.00
2018-08-06T21:35:18.579Z,23.90
2018-08-06T21:37:48.473Z,23.80
2018-08-06T21:42:46.049Z,23.70
2018-08-06T21:45:14.630Z,23.60
2018-08-06T21:47:43.124Z,23.50
2018-08-06T21:50:12.264Z,23.40
2018-08-06T21:52:40.975Z,23.30
2018-08-06T21:55:10.238Z,23.20
2018-08-06T21:57:38.974Z,23.10
2018-08-06T22:00:42.509Z,23.00
2018-08-06T22:03:13.088Z,22.90
2018-08-06T22:05:41.963Z,22.80
2018-08-06T22:08:10.606Z,22.70
2018-08-06T22:10:39.553Z,22.60
2018-08-06T22:13:09.162Z,22.50
2018-08-06T22:15:37.706Z,22.40
2018-08-06T22:18:07.215Z,22.30
2018-08-06T22:20:36.306Z,22.20
2018-08-06T22:23:04.921Z,22.20
2018-08-06T22:25:33.434Z,22.10
2018-08-06T22:28:01.990Z,22.10
2018-08-06T22:30:30.699Z,22.10
2018-08-06T22:32:59.214Z,22.10
2018-08-06T22:35:27.792Z,22.10
2018-08-06T22:37:56.281Z,22.10
2018-08-06T22:40:24.814Z,22.10
2018-08-06T22:42:53.303Z,22.10
2018-08-06T22:45:21.861Z,22.10
2018-08-06T22:47:50.329Z,22.10
2018-08-06T22:50:18.849Z,22.00
2018-08-06T22:52:47.362Z,22.10
2018-08-06T22:57:44.048Z,22.00
2018-08-06T23:00:16.562Z,22.00
2018-08-06T23:02:45.572Z,22.00
2018-08-06T23:05:15.783Z,22.10
2018-08-06T23:07:44.523Z,22.10
2018-08-06T23:10:15.705Z,22.10
2018-08-06T23:12:44.365Z,22.10
2018-08-06T23:15:15.041Z,22.10
2018-08-06T23:17:44.336Z,22.10
2018-08-06T23:20:12.890Z,22.00
2018-08-06T23:22:41.443Z,22.00
2018-08-06T23:25:09.957Z,22.00
2018-08-06T23:27:39.373Z,21.90
2018-08-06T23:30:14.685Z,21.90
2018-08-06T23:32:43.516Z,21.90
2018-08-06T23:35:13.045Z,21.90
2018-08-06T23:37:42.522Z,21.90
2018-08-06T23:40:11.881Z,21.90
2018-08-06T23:42:41.157Z,21.80
2018-08-06T23:45:11.066Z,21.70
2018-08-06T23:50:10.791Z,21.60
2018-08-06T23:52:40.650Z,21.50
2018-08-06T23:55:10.302Z,21.40
